Time;durP1;ratioP1;P1;durP2;ratioP2;P2;SDS_P1;SDS_P2;PMS_P1;PMS_P2;Temp;Humidity;BMP_temperature;BMP_pressure;BME280_temperature;BME280_humidity;BME280_pressure;Samples;Min_cycle;Max_cycle;Signal;HPM_P1;HPM_P2
2023/04/29 00:00:33;;;;;;;50.42;34.85;;;;;;;12.25;72.64;101367.00;5083935;28;20054;-65
2023/04/29 00:03:00;;;;;;;47.90;33.72;;;;;;;12.26;72.56;101377.03;5095297;28;20077;-65
2023/04/29 00:05:25;;;;;;;53.85;35.25;;;;;;;12.23;72.67;101374.78;5087410;28;20043;-65
2023/04/29 00:07:51;;;;;;;51.20;34.13;;;;;;;12.23;72.24;101377.56;5091110;28;20036;-65
2023/04/29 00:10:16;;;;;;;47.90;31.90;;;;;;;12.19;72.32;101382.78;5090394;28;20032;-65
2023/04/29 00:12:41;;;;;;;47.30;33.33;;;;;;;12.17;72.49;101373.00;5089307;28;20032;-65
2023/04/29 00:15:07;;;;;;;46.28;33.05;;;;;;;12.12;72.41;101381.25;5090581;28;20059;-65
2023/04/29 00:17:33;;;;;;;49.35;33.17;;;;;;;12.07;72.35;101384.81;5081021;28;20039;-64
2023/04/29 00:20:00;;;;;;;44.83;32.20;;;;;;;12.08;72.55;101385.63;5070170;28;20484;-64
2023/04/29 00:22:25;;;;;;;45.58;32.42;;;;;;;12.04;72.12;101385.28;5079357;28;20127;-65
2023/04/29 00:24:51;;;;;;;44.88;32.30;;;;;;;12.07;72.50;101383.97;5070662;28;20145;-64
2023/04/29 00:27:17;;;;;;;45.40;32.67;;;;;;;12.04;72.46;101393.63;5070451;28;20029;-64
2023/04/29 00:29:42;;;;;;;46.33;32.75;;;;;;;12.08;72.13;101394.00;5069646;28;20025;-65
2023/04/29 00:32:08;;;;;;;49.92;31.98;;;;;;;12.10;72.22;101397.34;5070517;28;20032;-65
2023/04/29 00:34:33;;;;;;;45.92;32.45;;;;;;;12.04;71.95;101397.25;5070496;28;20060;-65
2023/04/29 00:36:58;;;;;;;44.90;32.10;;;;;;;12.01;72.34;101397.75;5083111;28;20473;-64
2023/04/29 00:39:24;;;;;;;45.38;32.58;;;;;;;12.03;72.28;101398.38;5081172;28;20032;-65
2023/04/29 00:41:49;;;;;;;43.03;31.58;;;;;;;12.03;72.29;101397.53;5070270;28;20436;-65
2023/04/29 00:44:14;;;;;;;39.65;30.83;;;;;;;12.03;72.37;101408.66;5077126;28;20028;-65
2023/04/29 00:46:40;;;;;;;36.47;27.98;;;;;;;11.98;71.90;101409.38;5090262;28;20043;-65
2023/04/29 00:49:07;;;;;;;36.17;28.10;;;;;;;11.95;71.86;101404.34;5090226;28;20035;-64
2023/04/29 00:51:33;;;;;;;34.70;26.85;;;;;;;11.93;71.68;101400.94;5089764;28;20035;-64
2023/04/29 00:53:58;;;;;;;35.55;28.70;;;;;;;11.97;72.02;101396.56;5087905;28;20163;-65
2023/04/29 00:56:24;;;;;;;33.47;27.48;;;;;;;11.88;71.90;101406.41;5086851;28;20184;-65
2023/04/29 00:58:51;;;;;;;31.58;26.88;;;;;;;11.87;71.85;101410.28;5091873;28;20028;-65
2023/04/29 01:01:18;;;;;;;33.80;27.13;;;;;;;11.85;71.80;101401.34;5101301;28;20178;-65
2023/04/29 01:03:44;;;;;;;33.75;27.52;;;;;;;11.83;71.94;101414.66;5094491;28;20673;-65
2023/04/29 01:06:22;;;;;;;32.33;25.85;;;;;;;11.86;71.58;101407.75;5093665;28;20031;-65
2023/04/29 01:09:05;;;;;;;29.92;25.38;;;;;;;11.85;71.59;101415.25;5094148;28;20028;-65
2023/04/29 01:11:38;;;;;;;31.98;26.58;;;;;;;11.80;71.45;101417.91;5091368;28;20490;-65
2023/04/29 01:14:04;;;;;;;30.42;25.88;;;;;;;11.79;71.77;101414.28;5084260;28;20118;-65
2023/04/29 01:16:36;;;;;;;32.47;26.75;;;;;;;11.75;71.76;101415.00;5088798;28;20487;-65
2023/04/29 01:19:11;;;;;;;37.33;28.35;;;;;;;11.78;71.95;101420.06;5073014;28;20431;-64
2023/04/29 01:21:47;;;;;;;35.17;27.98;;;;;;;11.77;72.02;101419.22;5075571;28;20028;-65
2023/04/29 01:24:13;;;;;;;37.63;27.15;;;;;;;11.80;71.79;101421.53;5091185;28;20122;-65
2023/04/29 01:26:42;;;;;;;35.50;27.85;;;;;;;11.81;71.39;101427.94;5079517;28;20123;-65
2023/04/29 01:29:31;;;;;;;35.85;29.38;;;;;;;11.76;71.57;101431.47;5082224;28;20432;-65
2023/04/29 01:32:04;;;;;;;36.53;29.10;;;;;;;11.71;71.88;101447.19;5087074;28;20047;-65
2023/04/29 01:34:41;;;;;;;41.60;29.63;;;;;;;11.71;71.92;101438.84;5089138;28;20028;-65
2023/04/29 01:37:16;;;;;;;38.80;30.00;;;;;;;11.68;72.61;101442.13;5091865;28;20524;-65
2023/04/29 01:39:55;;;;;;;40.08;30.23;;;;;;;11.72;72.25;101446.94;5080667;28;20065;-65
2023/04/29 01:42:32;;;;;;;38.78;31.02;;;;;;;11.73;72.14;101445.84;5090967;28;20486;-65
2023/04/29 01:45:00;;;;;;;37.42;30.65;;;;;;;11.76;72.26;101448.16;5087251;28;20032;-64
2023/04/29 01:47:26;;;;;;;42.60;32.30;;;;;;;11.69;72.02;101454.94;5084426;28;20020;-65
2023/04/29 01:49:51;;;;;;;43.75;32.28;;;;;;;11.73;72.09;101447.78;5078907;28;20382;-64
2023/04/29 01:52:16;;;;;;;43.72;32.42;;;;;;;11.73;72.18;101445.84;5089389;28;20038;-65
2023/04/29 01:54:42;;;;;;;40.35;31.23;;;;;;;11.72;72.10;101449.72;5087319;28;20035;-64
2023/04/29 01:57:07;;;;;;;43.42;31.67;;;;;;;11.70;72.21;101445.50;5074907;28;20060;-64
2023/04/29 01:59:32;;;;;;;43.85;32.38;;;;;;;11.71;72.34;101455.53;5092123;28;20038;-65
2023/04/29 02:01:58;;;;;;;46.45;33.47;;;;;;;11.65;72.97;101448.19;5091683;28;20348;-65
2023/04/29 02:04:27;;;;;;;45.55;33.70;;;;;;;11.59;72.71;101455.56;5077897;28;20111;-64
2023/04/29 02:06:52;;;;;;;46.08;33.55;;;;;;;11.64;72.82;101457.63;5071977;28;20047;-64
2023/04/29 02:09:18;;;;;;;46.03;33.35;;;;;;;11.60;72.77;101453.66;5083888;28;20055;-64
2023/04/29 02:11:43;;;;;;;49.97;33.75;;;;;;;11.62;72.67;101454.22;5084457;28;20734;-64
2023/04/29 02:14:08;;;;;;;47.65;33.03;;;;;;;11.57;72.55;101463.31;5091263;28;20177;-64
2023/04/29 02:16:34;;;;;;;47.08;33.67;;;;;;;11.55;72.76;101465.47;5076772;28;20055;-65
2023/04/29 02:18:59;;;;;;;45.83;33.30;;;;;;;11.54;72.60;101467.41;5090854;28;20074;-64
2023/04/29 02:21:25;;;;;;;45.42;34.83;;;;;;;11.59;72.70;101466.66;5090917;28;20020;-64
2023/04/29 02:23:53;;;;;;;48.90;34.30;;;;;;;11.55;72.61;101474.69;5076779;28;20033;-64
2023/04/29 02:26:19;;;;;;;48.80;33.88;;;;;;;11.54;72.93;101470.19;5090670;28;20391;-65
2023/04/29 02:28:44;;;;;;;51.33;34.72;;;;;;;11.55;72.73;101480.25;5091500;28;20032;-64
2023/04/29 02:31:09;;;;;;;50.47;34.70;;;;;;;11.58;72.70;101481.66;5092020;28;20032;-65
2023/04/29 02:33:34;;;;;;;52.80;35.88;;;;;;;11.53;72.94;101482.41;5084940;28;20031;-65
2023/04/29 02:36:00;;;;;;;48.10;34.22;;;;;;;11.55;72.72;101480.25;5090387;28;20483;-64
2023/04/29 02:38:25;;;;;;;51.50;35.45;;;;;;;11.54;73.21;101486.03;5089858;28;20559;-65
2023/04/29 02:40:51;;;;;;;55.40;36.45;;;;;;;11.55;73.27;101493.28;5081840;28;20024;-64
2023/04/29 02:43:16;;;;;;;58.30;36.42;;;;;;;11.52;73.12;101491.84;5111948;28;20124;-64
2023/04/29 02:45:41;;;;;;;54.15;37.30;;;;;;;11.51;73.44;101500.41;5102035;28;20430;-64
2023/04/29 02:48:06;;;;;;;56.05;36.35;;;;;;;11.54;73.17;101503.56;5072973;28;20047;-65
2023/04/29 02:50:32;;;;;;;53.85;36.88;;;;;;;11.53;73.84;101513.00;5074829;28;20028;-65
2023/04/29 02:52:57;;;;;;;54.15;37.33;;;;;;;11.49;73.51;101511.78;5080269;28;20018;-65
2023/04/29 02:55:23;;;;;;;56.60;36.75;;;;;;;11.49;73.77;101510.94;5090260;28;20387;-64
2023/04/29 02:57:48;;;;;;;55.80;37.72;;;;;;;11.48;74.34;101514.81;5077693;28;20021;-64
2023/04/29 03:00:14;;;;;;;52.08;36.88;;;;;;;11.53;73.94;101513.00;5071732;28;20078;-65
2023/04/29 03:02:39;;;;;;;58.33;38.03;;;;;;;11.45;74.21;101513.38;5071668;28;20028;-65
2023/04/29 03:05:05;;;;;;;56.95;36.40;;;;;;;11.44;74.66;101517.25;5070754;28;20379;-65
2023/04/29 03:07:31;;;;;;;52.38;37.40;;;;;;;11.45;74.57;101523.66;5073941;28;20115;-65
2023/04/29 03:09:56;;;;;;;56.00;36.25;;;;;;;11.42;74.51;101522.19;5077847;28;20556;-65
2023/04/29 03:12:22;;;;;;;56.05;37.25;;;;;;;11.41;74.71;101520.50;5071627;28;20075;-64
2023/04/29 03:14:47;;;;;;;53.17;35.97;;;;;;;11.42;74.89;101521.34;5069262;28;20452;-64
2023/04/29 03:17:13;;;;;;;56.25;37.65;;;;;;;11.42;74.92;101521.34;5050710;28;20036;-65
2023/04/29 03:19:38;;;;;;;59.00;37.38;;;;;;;11.40;75.05;101523.53;5050416;28;20078;-65
2023/04/29 03:22:04;;;;;;;59.92;37.28;;;;;;;11.39;75.07;101530.16;5051400;28;20480;-65
2023/04/29 03:24:29;;;;;;;59.50;37.67;;;;;;;11.42;74.94;101529.69;5051224;28;20032;-65
2023/04/29 03:26:54;;;;;;;56.20;34.88;;;;;;;11.37;74.93;101527.63;5062067;28;20028;-65
2023/04/29 03:29:19;;;;;;;54.40;36.00;;;;;;;11.40;75.06;101534.66;5069792;28;20028;-65
2023/04/29 03:31:45;;;;;;;58.40;36.58;;;;;;;11.42;74.72;101541.63;5050853;28;20024;-64
2023/04/29 03:34:13;;;;;;;53.42;34.17;;;;;;;11.42;75.06;101544.41;5050508;28;20044;-65
2023/04/29 03:36:38;;;;;;;50.03;35.55;;;;;;;11.40;74.80;101535.50;5051146;28;20033;-65
2023/04/29 03:39:04;;;;;;;52.97;35.40;;;;;;;11.39;74.94;101544.91;5050838;28;20499;-65
2023/04/29 03:41:29;;;;;;;49.20;33.95;;;;;;;11.39;74.83;101539.34;5048967;28;20056;-65
2023/04/29 03:43:59;;;;;;;47.50;33.78;;;;;;;11.40;75.25;101535.50;5053987;28;20036;-65
2023/04/29 03:46:24;;;;;;;55.90;34.75;;;;;;;11.37;74.86;101540.69;5051675;28;20056;-65
2023/04/29 03:48:50;;;;;;;53.70;33.67;;;;;;;11.35;74.96;101535.34;5050950;28;20051;-65
2023/04/29 03:51:16;;;;;;;50.38;34.75;;;;;;;11.36;74.93;101538.97;5068661;28;20024;-65
2023/04/29 03:53:41;;;;;;;56.60;35.17;;;;;;;11.33;75.08;101548.66;5069862;28;20082;-65
2023/04/29 03:56:06;;;;;;;47.03;32.28;;;;;;;11.30;75.13;101552.75;5070569;28;20036;-65
2023/04/29 03:58:32;;;;;;;51.55;33.45;;;;;;;11.25;75.21;101551.81;5070127;28;20029;-65
2023/04/29 04:00:57;;;;;;;45.67;33.35;;;;;;;11.25;75.53;101544.31;5056649;28;20028;-64
2023/04/29 04:03:24;;;;;;;48.70;32.08;;;;;;;11.30;75.18;101543.56;5068981;28;20024;-65
2023/04/29 04:05:49;;;;;;;48.85;31.67;;;;;;;11.31;75.14;101551.66;5070473;28;20025;-65
2023/04/29 04:08:15;;;;;;;47.42;32.22;;;;;;;11.30;75.18;101546.34;5069685;28;20048;-65
2023/04/29 04:10:40;;;;;;;45.60;31.65;;;;;;;11.29;75.07;101558.56;5070287;28;20021;-64
2023/04/29 04:13:05;;;;;;;44.90;30.90;;;;;;;11.34;75.12;101557.84;5063674;28;20033;-64
2023/04/29 04:15:31;;;;;;;48.72;29.80;;;;;;;11.31;75.21;101564.72;5056740;28;20119;-64
2023/04/29 04:17:56;;;;;;;45.60;30.95;;;;;;;11.30;75.01;101560.25;5083979;28;20077;-65
2023/04/29 04:20:21;;;;;;;47.63;31.08;;;;;;;11.25;75.19;101563.75;5088746;28;20046;-65
2023/04/29 04:22:47;;;;;;;42.22;30.65;;;;;;;11.26;74.95;101567.38;5072057;28;20044;-65
2023/04/29 04:25:12;;;;;;;41.35;29.52;;;;;;;11.26;75.18;101570.16;5069675;28;20581;-65
2023/04/29 04:27:37;;;;;;;46.08;29.98;;;;;;;11.25;75.11;101569.31;5069710;28;20021;-65
2023/04/29 04:30:03;;;;;;;42.53;30.25;;;;;;;11.24;75.15;101570.41;5071741;28;20028;-65
2023/04/29 04:32:28;;;;;;;43.15;29.00;;;;;;;11.29;75.27;101580.81;5074392;28;20036;-65
2023/04/29 04:34:54;;;;;;;39.42;29.88;;;;;;;11.25;75.42;101574.03;5088315;28;20035;-65
2023/04/29 04:37:19;;;;;;;40.05;28.08;;;;;;;11.27;75.05;101582.97;5092447;28;20512;-65
2023/04/29 04:39:45;;;;;;;43.25;28.48;;;;;;;11.21;75.11;101578.38;5076363;28;20138;-65
2023/04/29 04:42:10;;;;;;;46.65;28.92;;;;;;;11.22;75.01;101593.97;5094398;28;20375;-64
2023/04/29 04:44:36;;;;;;;45.38;28.70;;;;;;;11.21;75.18;101589.50;5079120;28;20472;-65
2023/04/29 04:47:01;;;;;;;42.72;29.30;;;;;;;11.17;75.40;101599.41;5091314;28;20035;-64
2023/04/29 04:49:27;;;;;;;44.03;29.25;;;;;;;11.19;75.39;101598.03;5086818;28;20028;-65
2023/04/29 04:51:52;;;;;;;40.17;27.58;;;;;;;11.18;75.38;101598.28;5093373;28;20111;-64
2023/04/29 04:54:18;;;;;;;41.17;27.63;;;;;;;11.16;75.42;101608.78;5092281;28;20028;-66
2023/04/29 04:56:44;;;;;;;44.00;27.95;;;;;;;11.18;75.39;101613.03;5073125;28;20039;-67
2023/04/29 04:59:09;;;;;;;40.20;27.98;;;;;;;11.16;75.40;101623.56;5075884;28;20099;-63
2023/04/29 05:01:35;;;;;;;41.17;28.13;;;;;;;11.13;75.79;101617.63;5081687;28;20081;-65
2023/04/29 05:04:01;;;;;;;41.17;27.85;;;;;;;11.13;75.68;101621.25;5089379;28;20032;-65
2023/04/29 05:06:26;;;;;;;41.10;27.88;;;;;;;11.13;75.69;101624.03;5094356;28;20035;-66
2023/04/29 05:08:52;;;;;;;42.20;28.17;;;;;;;11.16;75.53;101628.25;5093182;28;20028;-64
2023/04/29 05:11:19;;;;;;;42.55;27.70;;;;;;;11.14;75.71;101624.88;5090404;28;20089;-65
2023/04/29 05:13:44;;;;;;;40.50;27.05;;;;;;;11.13;75.48;101635.13;5074286;28;20043;-65
2023/04/29 05:16:09;;;;;;;41.03;27.23;;;;;;;11.14;75.57;101635.97;5076582;28;20404;-64
2023/04/29 05:18:35;;;;;;;36.10;26.88;;;;;;;11.13;75.27;101640.69;5078087;28;20080;-63
2023/04/29 05:21:00;;;;;;;45.47;27.05;;;;;;;11.11;75.76;101639.22;5082656;28;20554;-63
2023/04/29 05:23:25;;;;;;;37.78;27.17;;;;;;;11.09;75.22;101645.03;5083167;28;20032;-64
2023/04/29 05:25:51;;;;;;;38.00;26.35;;;;;;;11.14;75.51;101645.16;5092252;28;20031;-64
2023/04/29 05:28:16;;;;;;;35.20;26.92;;;;;;;11.13;75.46;101649.03;5091664;28;20036;-65
2023/04/29 05:30:42;;;;;;;33.88;25.70;;;;;;;11.10;75.67;101652.28;5092156;28;20566;-64
2023/04/29 05:33:07;;;;;;;36.83;25.75;;;;;;;11.13;75.52;101650.97;5090934;28;20024;-64
2023/04/29 05:35:33;;;;;;;34.47;25.30;;;;;;;11.14;75.69;101652.66;5072521;28;20540;-65
2023/04/29 05:37:58;;;;;;;32.97;25.55;;;;;;;11.15;75.79;101654.34;5078089;28;20033;-64
2023/04/29 05:40:23;;;;;;;34.75;25.85;;;;;;;11.15;75.69;101657.13;5071579;28;20044;-66
2023/04/29 05:42:48;;;;;;;33.90;24.67;;;;;;;11.15;75.54;101657.97;5081336;28;20059;-65
2023/04/29 05:45:14;;;;;;;32.45;24.48;;;;;;;11.18;75.47;101662.22;5091865;28;20028;-64
2023/04/29 05:47:39;;;;;;;36.47;25.27;;;;;;;11.15;75.50;101662.69;5091914;28;20028;-64
2023/04/29 05:50:06;;;;;;;34.90;25.55;;;;;;;11.16;75.56;101667.13;5072534;28;20044;-64
2023/04/29 05:52:31;;;;;;;37.65;26.02;;;;;;;11.18;75.74;101667.75;5088657;28;20395;-65
2023/04/29 05:54:56;;;;;;;35.92;24.52;;;;;;;11.18;75.24;101681.66;5073902;28;20044;-65
2023/04/29 05:57:22;;;;;;;37.88;24.98;;;;;;;11.18;75.23;101676.94;5087135;28;20085;-65
2023/04/29 05:59:47;;;;;;;33.90;24.90;;;;;;;11.18;75.27;101687.22;5082940;28;20032;-65
2023/04/29 06:02:13;;;;;;;36.63;25.23;;;;;;;11.20;75.13;101696.16;5087956;28;20055;-65
2023/04/29 06:04:40;;;;;;;32.08;24.27;;;;;;;11.18;75.37;101698.34;5092136;28;20020;-64
2023/04/29 06:07:07;;;;;;;36.42;24.98;;;;;;;11.18;75.58;101696.41;5092112;28;20024;-64
2023/04/29 06:09:34;;;;;;;35.40;24.83;;;;;;;11.17;75.09;101693.88;5092009;28;20031;-64
2023/04/29 06:11:59;;;;;;;39.85;25.67;;;;;;;11.17;75.41;101703.03;5073190;28;20031;-64
2023/04/29 06:14:24;;;;;;;39.45;25.38;;;;;;;11.18;75.29;101706.66;5085243;28;20387;-66
2023/04/29 06:16:50;;;;;;;35.83;23.27;;;;;;;11.20;75.31;101701.72;5078726;28;20103;-66
2023/04/29 06:19:15;;;;;;;35.10;24.98;;;;;;;11.21;75.33;101708.97;5071965;28;20029;-65
2023/04/29 06:21:40;;;;;;;35.25;24.98;;;;;;;11.20;75.41;101710.91;5091967;28;20112;-65
2023/04/29 06:24:06;;;;;;;34.85;23.95;;;;;;;11.20;75.46;101710.03;5092205;28;20047;-65
2023/04/29 06:26:32;;;;;;;36.58;25.20;;;;;;;11.16;75.29;101712.47;5091535;28;20071;-65
2023/04/29 06:28:57;;;;;;;36.58;24.67;;;;;;;11.17;75.60;101722.50;5089022;28;20064;-65
2023/04/29 06:31:22;;;;;;;36.30;25.33;;;;;;;11.17;75.50;101725.28;5073697;28;20082;-65
2023/04/29 06:33:47;;;;;;;36.42;25.13;;;;;;;11.15;75.81;101727.44;5071249;28;20036;-65
2023/04/29 06:36:13;;;;;;;32.88;23.52;;;;;;;11.16;75.49;101729.16;5071968;28;20084;-65
2023/04/29 06:38:38;;;;;;;34.13;23.75;;;;;;;11.20;75.22;101729.50;5091532;28;20058;-65
2023/04/29 06:41:03;;;;;;;32.75;24.00;;;;;;;11.20;75.49;101729.50;5075325;28;20028;-65
2023/04/29 06:43:29;;;;;;;34.78;24.15;;;;;;;11.17;75.22;101736.38;5071425;28;20441;-65
2023/04/29 06:45:55;;;;;;;36.70;25.52;;;;;;;11.18;75.42;101742.78;5076513;28;20478;-65
2023/04/29 06:48:21;;;;;;;36.30;24.00;;;;;;;11.21;75.57;101747.88;5086672;28;20086;-65
2023/04/29 06:50:54;;;;;;;34.17;23.85;;;;;;;11.23;75.49;101748.47;5076324;28;20027;-65
2023/04/29 06:53:20;;;;;;;36.97;24.60;;;;;;;11.24;75.68;101752.97;5084291;28;20031;-65
2023/04/29 06:55:46;;;;;;;33.20;24.10;;;;;;;11.22;75.59;101757.91;5089858;28;20043;-65
2023/04/29 06:58:15;;;;;;;34.42;24.05;;;;;;;11.24;76.03;101764.94;5091332;28;20028;-65
2023/04/29 07:00:49;;;;;;;34.08;23.25;;;;;;;11.38;79.14;101764.75;5091349;28;20028;-65
2023/04/29 07:03:15;;;;;;;32.78;24.42;;;;;;;11.54;77.23;101773.25;5081020;28;20548;-65
2023/04/29 07:05:41;;;;;;;34.78;23.25;;;;;;;11.54;76.11;101777.97;5070957;28;20082;-65
2023/04/29 07:08:07;;;;;;;32.67;23.42;;;;;;;11.51;75.39;101779.31;5082587;28;20141;-63
2023/04/29 07:10:33;;;;;;;31.05;22.90;;;;;;;11.53;75.53;101779.91;5082149;28;20479;-64
2023/04/29 07:12:59;;;;;;;28.52;22.35;;;;;;;11.51;75.05;101778.44;5090093;28;20043;-64
2023/04/29 07:15:29;;;;;;;32.25;23.05;;;;;;;11.49;75.56;101784.25;5071354;28;20482;-63
2023/04/29 07:17:55;;;;;;;32.90;23.38;;;;;;;11.46;75.28;101787.47;5072064;28;20055;-63
2023/04/29 07:20:20;;;;;;;33.42;23.70;;;;;;;11.45;75.55;101788.56;5073197;28;20486;-63
2023/04/29 07:22:45;;;;;;;34.67;24.42;;;;;;;11.48;75.27;101790.88;5087309;28;20038;-61
2023/04/29 07:25:11;;;;;;;33.88;23.02;;;;;;;11.45;75.32;101791.34;5077924;28;20039;-64
2023/04/29 07:27:36;;;;;;;28.25;22.83;;;;;;;11.47;75.25;101791.94;5078500;28;20124;-63
2023/04/29 07:30:03;;;;;;;32.20;23.55;;;;;;;11.46;75.37;101795.81;5089345;28;20729;-63
2023/04/29 07:32:30;;;;;;;31.50;22.33;;;;;;;11.47;75.42;101805.00;5080538;28;20039;-63
2023/04/29 07:34:56;;;;;;;33.20;22.70;;;;;;;11.45;75.19;101804.41;5078275;28;20506;-63
2023/04/29 07:37:21;;;;;;;30.33;21.60;;;;;;;11.45;74.97;101808.03;5076375;28;20044;-63
2023/04/29 07:39:47;;;;;;;30.95;23.05;;;;;;;11.47;75.20;101803.06;5080917;28;20595;-62
2023/04/29 07:42:12;;;;;;;31.95;22.65;;;;;;;11.46;74.89;101806.09;5083759;28;20074;-62
2023/04/29 07:44:38;;;;;;;32.03;23.27;;;;;;;11.49;75.38;101811.19;5076047;28;20039;-63
2023/04/29 07:47:03;;;;;;;28.30;22.23;;;;;;;11.52;74.83;101817.13;5073266;28;20028;-64
2023/04/29 07:49:29;;;;;;;29.20;22.83;;;;;;;11.50;74.96;101812.88;5084162;28;20039;-64
2023/04/29 07:51:54;;;;;;;33.30;23.52;;;;;;;11.50;75.38;101807.31;5076897;28;20016;-64
2023/04/29 07:54:21;;;;;;;32.05;22.80;;;;;;;11.51;75.12;101820.13;5069361;28;20090;-64
2023/04/29 07:56:46;;;;;;;28.23;21.67;;;;;;;11.55;75.27;101821.34;5080737;28;20032;-65
2023/04/29 07:59:11;;;;;;;34.47;23.55;;;;;;;11.59;75.87;101824.50;5084120;28;20116;-61
2023/04/29 08:01:37;;;;;;;31.63;23.38;;;;;;;11.62;75.09;101822.09;5069315;28;20066;-62
2023/04/29 08:04:02;;;;;;;29.20;22.30;;;;;;;11.67;74.93;101826.97;5072492;28;20112;-62
2023/04/29 08:06:28;;;;;;;31.88;23.02;;;;;;;11.70;74.83;101819.00;5087116;28;20797;-62
2023/04/29 08:08:55;;;;;;;31.15;23.60;;;;;;;11.73;74.71;101824.09;5073212;28;20028;-62
2023/04/29 08:11:23;;;;;;;30.05;22.33;;;;;;;11.72;74.99;101833.53;5073408;28;20139;-62
2023/04/29 08:13:48;;;;;;;27.80;22.85;;;;;;;11.75;74.60;101843.31;5067489;28;20032;-64
2023/04/29 08:16:14;;;;;;;28.50;21.98;;;;;;;11.75;74.60;101837.75;5075188;28;20457;-58
2023/04/29 08:18:39;;;;;;;26.25;20.67;;;;;;;11.78;74.60;101837.28;5069876;28;20635;-62
2023/04/29 08:21:05;;;;;;;26.73;19.55;;;;;;;11.79;73.23;101839.00;5089419;28;20031;-63
2023/04/29 08:23:31;;;;;;;25.90;19.30;;;;;;;11.83;72.88;101839.34;5089280;28;20027;-62
2023/04/29 08:25:56;;;;;;;26.27;20.73;;;;;;;11.83;73.38;101836.56;5084788;28;20094;-62
2023/04/29 08:28:21;;;;;;;24.70;19.73;;;;;;;11.88;73.37;101839.53;5068765;28;20031;-62
2023/04/29 08:30:47;;;;;;;27.58;19.92;;;;;;;11.90;73.29;101840.97;5068322;28;20028;-62
2023/04/29 08:33:13;;;;;;;26.65;19.02;;;;;;;11.92;72.76;101843.53;5068342;28;20017;-63
2023/04/29 08:35:39;;;;;;;24.02;19.50;;;;;;;11.93;72.09;101839.66;5067535;28;20035;-62
2023/04/29 08:38:05;;;;;;;24.45;19.13;;;;;;;11.92;72.17;101849.09;5069650;28;20029;-63
2023/04/29 08:40:40;;;;;;;23.38;18.52;;;;;;;11.96;72.11;101850.31;5070616;28;20055;-63
2023/04/29 08:43:05;;;;;;;26.45;18.45;;;;;;;12.00;71.43;101851.53;5081762;28;20040;-62
2023/04/29 08:45:32;;;;;;;23.25;18.05;;;;;;;12.04;71.49;101849.97;5069805;28;20032;-62
2023/04/29 08:47:59;;;;;;;25.00;18.85;;;;;;;12.08;71.54;101853.13;5070036;28;20039;-62
2023/04/29 08:50:26;;;;;;;24.65;19.67;;;;;;;12.11;71.12;101847.09;5069067;28;20046;-63
2023/04/29 08:52:52;;;;;;;25.65;19.90;;;;;;;12.12;71.42;101852.41;5069339;28;20059;-62
2023/04/29 08:55:17;;;;;;;27.23;18.30;;;;;;;12.14;70.44;101858.56;5071070;28;20071;-62
2023/04/29 08:57:45;;;;;;;27.75;18.50;;;;;;;12.16;69.96;101852.78;5088221;28;20459;-62
2023/04/29 09:00:12;;;;;;;24.23;19.80;;;;;;;12.18;70.45;101856.16;5076544;28;20094;-62
2023/04/29 09:02:44;;;;;;;25.58;18.50;;;;;;;12.21;69.94;101859.31;5069490;28;20081;-62
2023/04/29 09:05:10;;;;;;;24.55;18.10;;;;;;;12.25;70.44;101854.13;5089460;28;20437;-62
2023/04/29 09:07:38;;;;;;;25.00;17.75;;;;;;;12.27;70.28;101857.53;5072834;28;20024;-61
2023/04/29 09:10:04;;;;;;;23.45;17.58;;;;;;;12.27;69.45;101858.38;5067987;28;20107;-61
2023/04/29 09:12:30;;;;;;;21.00;16.17;;;;;;;12.27;69.91;101863.94;5079654;28;20111;-62
2023/04/29 09:14:56;;;;;;;24.55;18.35;;;;;;;12.30;69.37;101868.19;5088816;28;20135;-62
2023/04/29 09:17:45;;;;;;;19.92;16.65;;;;;;;12.31;69.65;101863.47;5070723;28;20029;-62
2023/04/29 09:20:19;;;;;;;22.67;17.23;;;;;;;12.29;69.55;101864.53;5087383;28;20552;-62
2023/04/29 09:22:52;;;;;;;21.10;16.60;;;;;;;12.28;68.85;101875.91;5088969;28;20118;-62
2023/04/29 09:25:17;;;;;;;21.90;15.93;;;;;;;12.33;68.60;101872.41;5087270;28;20040;-59
2023/04/29 09:27:42;;;;;;;20.83;15.30;;;;;;;12.47;69.44;101866.38;5090262;28;20023;-60
2023/04/29 09:30:08;;;;;;;20.15;15.55;;;;;;;12.65;68.77;101872.91;5083515;28;20147;-58
2023/04/29 09:32:34;;;;;;;17.73;14.95;;;;;;;12.86;68.28;101863.09;5079980;28;20066;-58
2023/04/29 09:35:23;;;;;;;16.27;13.23;;;;;;;13.00;68.22;101873.72;5077333;28;20212;-58
2023/04/29 09:37:49;;;;;;;15.65;13.27;;;;;;;12.98;66.10;101870.34;5076987;28;20036;-58
2023/04/29 09:40:31;;;;;;;15.82;13.13;;;;;;;12.97;66.20;101873.38;5072347;28;20376;-62
2023/04/29 09:42:57;;;;;;;17.30;12.55;;;;;;;12.96;65.73;101869.72;5073818;28;20031;-63
2023/04/29 09:45:40;;;;;;;17.25;12.63;;;;;;;13.06;66.39;101877.50;5072151;28;20036;-64
2023/04/29 09:48:09;;;;;;;18.98;14.00;;;;;;;13.18;67.14;101885.81;5072681;28;20107;-64
2023/04/29 09:50:36;;;;;;;16.10;13.77;;;;;;;13.21;65.19;101876.97;5072708;28;20016;-63
2023/04/29 09:53:01;;;;;;;15.40;12.30;;;;;;;13.23;65.24;101880.38;5070410;28;20032;-64
2023/04/29 09:55:28;;;;;;;17.52;13.20;;;;;;;13.23;65.09;101878.44;5072971;28;20037;-63
2023/04/29 09:57:54;;;;;;;20.65;14.50;;;;;;;13.22;66.18;101887.88;5072641;28;20024;-63
2023/04/29 10:00:19;;;;;;;18.83;13.70;;;;;;;13.26;66.16;101888.28;5082614;28;20027;-63
2023/04/29 10:02:48;;;;;;;17.55;13.88;;;;;;;13.27;66.27;101892.75;5092602;28;20058;-64
2023/04/29 10:05:18;;;;;;;21.40;14.45;;;;;;;13.30;66.80;101889.47;5077608;28;20081;-64
2023/04/29 10:07:46;;;;;;;19.30;13.82;;;;;;;13.38;66.51;101897.44;5072023;28;20040;-63
2023/04/29 10:10:12;;;;;;;16.15;12.20;;;;;;;13.40;65.01;101900.84;5087489;28;20062;-63
2023/04/29 10:12:39;;;;;;;16.35;11.93;;;;;;;13.38;64.62;101899.41;5092352;28;20597;-63
2023/04/29 10:15:20;;;;;;;16.08;11.05;;;;;;;13.36;64.03;101910.81;5080352;28;20048;-63
2023/04/29 10:17:51;;;;;;;14.10;11.27;;;;;;;13.33;62.90;101902.94;5082004;28;20056;-64
2023/04/29 10:20:22;;;;;;;15.48;11.50;;;;;;;13.37;63.68;101906.06;5074514;28;20020;-63
2023/04/29 10:22:49;;;;;;;14.52;12.32;;;;;;;13.41;64.30;101908.13;5079512;28;20040;-62
2023/04/29 10:25:17;;;;;;;17.02;12.07;;;;;;;13.36;63.62;101902.44;5083910;28;20119;-62
2023/04/29 10:27:44;;;;;;;14.57;11.70;;;;;;;13.35;63.71;101908.25;5081426;28;20038;-63
2023/04/29 10:30:13;;;;;;;14.88;11.73;;;;;;;13.29;63.41;101910.09;5071623;28;20107;-63
2023/04/29 10:32:42;;;;;;;15.10;12.35;;;;;;;13.30;63.37;101905.34;5079723;28;20036;-63
2023/04/29 10:35:09;;;;;;;14.50;11.25;;;;;;;13.29;62.55;101909.25;5072657;28;20044;-63
2023/04/29 10:37:38;;;;;;;12.57;10.18;;;;;;;13.30;63.23;101917.34;5074673;28;20073;-62
2023/04/29 10:40:03;;;;;;;14.73;11.43;;;;;;;13.32;61.81;101914.31;5082835;28;20140;-62
2023/04/29 10:42:41;;;;;;;14.88;10.82;;;;;;;13.35;62.81;101913.81;5089998;28;20538;-61
2023/04/29 10:45:18;;;;;;;12.02;10.52;;;;;;;13.35;62.33;101908.25;5090024;28;20487;-62
2023/04/29 10:48:04;;;;;;;12.88;10.05;;;;;;;13.37;62.19;101906.06;5075208;28;20089;-62
2023/04/29 10:50:39;;;;;;;13.55;9.88;;;;;;;13.35;61.57;101911.88;5074222;28;20115;-64
2023/04/29 10:53:04;;;;;;;11.95;10.38;;;;;;;13.35;61.14;101911.88;5085567;28;20036;-63
2023/04/29 10:55:30;;;;;;;12.82;10.38;;;;;;;13.38;61.55;101908.59;5071260;28;20062;-63
2023/04/29 10:57:56;;;;;;;14.68;11.68;;;;;;;13.40;62.12;101919.50;5080659;28;20546;-63
2023/04/29 11:00:25;;;;;;;14.13;11.10;;;;;;;13.41;62.62;101922.06;5081525;28;20028;-62
2023/04/29 11:02:53;;;;;;;15.18;11.45;;;;;;;13.42;62.50;101918.16;5078615;28;20082;-64
2023/04/29 11:05:30;;;;;;;14.65;11.60;;;;;;;13.45;62.33;101922.41;5084530;28;20020;-62
2023/04/29 11:08:08;;;;;;;16.75;11.50;;;;;;;13.46;62.66;101919.38;5073016;28;20099;-62